Time;durP1;ratioP1;P1;durP2;ratioP2;P2;SDS_P1;SDS_P2;PMS_P1;PMS_P2;Temp;Humidity;BMP_temperature;BMP_pressure;BME280_temperature;BME280_humidity;BME280_pressure;Samples;Min_cycle;Max_cycle;Signal;HPM_P1;HPM_P2
2022/05/17 00:01:51;;;;;;;23.75;14.52;;;;;;;13.11;100.00;99796.63;4989980;28;20088;-57
2022/05/17 00:04:16;;;;;;;18.75;13.45;;;;;;;13.11;100.00;99795.81;5005896;28;20105;-56
2022/05/17 00:06:42;;;;;;;22.73;13.73;;;;;;;12.98;100.00;99786.22;5005001;28;20056;-55
2022/05/17 00:09:08;;;;;;;21.45;12.30;;;;;;;12.96;100.00;99796.41;4986754;28;20491;-57
2022/05/17 00:11:34;;;;;;;20.00;12.93;;;;;;;12.85;100.00;99799.97;5003350;28;20491;-55
2022/05/17 00:13:59;;;;;;;18.60;12.35;;;;;;;12.77;100.00;99798.47;5006307;28;20030;-56
2022/05/17 00:16:25;;;;;;;19.58;12.73;;;;;;;12.66;100.00;99789.44;5004831;28;20554;-56
2022/05/17 00:18:51;;;;;;;20.23;13.10;;;;;;;12.54;100.00;99794.06;4988141;28;20029;-57
2022/05/17 00:21:16;;;;;;;19.27;12.40;;;;;;;12.55;100.00;99798.38;5006496;28;20036;-56
2022/05/17 00:23:42;;;;;;;18.50;11.98;;;;;;;12.49;100.00;99783.22;5006244;28;20614;-55
2022/05/17 00:26:08;;;;;;;17.00;11.52;;;;;;;12.48;100.00;99803.91;4971448;28;20080;-56
2022/05/17 00:28:33;;;;;;;20.90;12.15;;;;;;;12.43;100.00;99802.97;4988673;28;20634;-56
2022/05/17 00:31:00;;;;;;;20.25;12.95;;;;;;;12.26;100.00;99806.44;5005581;28;20033;-56
2022/05/17 00:33:26;;;;;;;24.35;12.40;;;;;;;12.14;100.00;99796.78;5005434;28;20071;-55
2022/05/17 00:35:52;;;;;;;15.68;10.35;;;;;;;12.20;100.00;99796.63;5006325;28;20132;-57
2022/05/17 00:38:17;;;;;;;17.85;9.80;;;;;;;12.18;100.00;99804.16;5002911;28;20061;-56
2022/05/17 00:40:43;;;;;;;15.98;9.73;;;;;;;12.24;100.00;99799.69;5005308;28;20040;-57
2022/05/17 00:43:09;;;;;;;18.00;10.18;;;;;;;12.23;100.00;99790.81;5005678;28;20038;-56
2022/05/17 00:45:35;;;;;;;16.90;9.65;;;;;;;12.19;100.00;99795.03;4985852;28;20025;-55
2022/05/17 00:48:08;;;;;;;15.50;9.32;;;;;;;12.30;100.00;99791.47;4988130;28;20034;-58
2022/05/17 00:50:39;;;;;;;16.15;8.85;;;;;;;12.30;100.00;99796.88;5005602;28;20112;-56
2022/05/17 00:53:30;;;;;;;12.70;8.25;;;;;;;12.36;100.00;99788.88;4971883;28;20033;-57
2022/05/17 00:55:57;;;;;;;16.13;9.18;;;;;;;12.27;100.00;99791.94;5002271;28;20542;-56
2022/05/17 00:58:35;;;;;;;11.77;7.72;;;;;;;12.24;100.00;99797.00;4988868;28;20041;-58
2022/05/17 01:01:03;;;;;;;14.23;9.32;;;;;;;12.16;100.00;99798.19;4999014;28;20057;-56
2022/05/17 01:03:37;;;;;;;13.82;8.10;;;;;;;12.16;99.93;99795.50;4987384;28;20030;-56
2022/05/17 01:06:02;;;;;;;14.10;8.30;;;;;;;12.12;99.75;99797.03;4972552;28;20025;-57
2022/05/17 01:08:31;;;;;;;18.95;8.57;;;;;;;12.00;100.00;99790.88;5004451;28;20447;-55
2022/05/17 01:10:57;;;;;;;17.08;8.63;;;;;;;12.04;99.77;99792.03;5005790;28;20034;-54
2022/05/17 01:16:06;;;;;;;12.48;7.47;;;;;;;12.19;97.52;99800.41;4990918;28;20118;-57
2022/05/17 01:18:33;;;;;;;16.00;8.43;;;;;;;12.18;97.52;99803.31;4964366;28;20105;-56
2022/05/17 01:20:58;;;;;;;14.90;8.07;;;;;;;12.09;98.98;99794.81;4984866;28;20049;-57
2022/05/17 01:23:24;;;;;;;15.23;8.52;;;;;;;12.06;97.89;99800.69;5004538;28;20021;-55
2022/05/17 01:25:49;;;;;;;12.90;7.63;;;;;;;12.09;97.45;99792.94;5003798;28;20037;-55
2022/05/17 01:28:20;;;;;;;10.93;7.30;;;;;;;12.04;96.88;99792.03;5004584;28;20042;-55
2022/05/17 01:30:46;;;;;;;15.57;7.35;;;;;;;12.06;96.60;99788.06;4997678;28;20088;-54
2022/05/17 01:33:16;;;;;;;14.75;7.90;;;;;;;12.05;96.16;99793.66;5005106;28;20034;-55
2022/05/17 01:35:41;;;;;;;15.60;8.10;;;;;;;11.89;95.95;99789.84;5006480;28;20022;-54
2022/05/17 01:38:07;;;;;;;15.55;8.02;;;;;;;11.73;98.00;99791.38;5009008;28;20302;-55
2022/05/17 01:40:32;;;;;;;13.85;7.05;;;;;;;11.74;98.25;99792.19;5008612;28;20033;-54
2022/05/17 01:42:58;;;;;;;17.13;8.70;;;;;;;11.58;98.67;99799.06;4990057;28;20034;-56
2022/05/17 01:45:24;;;;;;;11.93;7.25;;;;;;;11.65;98.54;99795.22;5008047;28;20044;-54
2022/05/17 01:47:49;;;;;;;16.88;8.20;;;;;;;11.66;98.29;99796.88;5009894;28;20026;-56
2022/05/17 01:50:15;;;;;;;10.63;6.63;;;;;;;11.65;98.63;99780.97;4992213;28;20136;-55
2022/05/17 01:52:44;;;;;;;18.80;7.65;;;;;;;11.58;98.75;99791.03;4964942;28;20026;-56
2022/05/17 01:55:10;;;;;;;17.35;8.77;;;;;;;11.50;99.58;99789.50;5008667;28;20038;-55
2022/05/17 01:57:36;;;;;;;12.32;8.10;;;;;;;11.51;99.22;99787.66;5007964;28;20048;-58
2022/05/17 02:00:05;;;;;;;15.55;7.75;;;;;;;11.50;99.22;99791.38;5007955;28;20026;-55
2022/05/17 02:02:32;;;;;;;13.88;7.45;;;;;;;11.47;98.94;99791.88;5008324;28;20026;-55
2022/05/17 02:04:57;;;;;;;17.27;7.43;;;;;;;11.44;98.25;99804.69;5008603;28;20026;-54
2022/05/17 02:07:23;;;;;;;13.27;7.05;;;;;;;11.45;99.26;99790.22;5010389;28;20056;-56
2022/05/17 02:09:51;;;;;;;9.75;6.45;;;;;;;11.32;98.83;99785.09;5007840;28;20057;-56
2022/05/17 02:12:18;;;;;;;12.65;7.22;;;;;;;11.40;98.84;99792.78;5008092;28;20038;-56
2022/05/17 02:14:43;;;;;;;10.82;6.65;;;;;;;11.38;99.30;99788.69;5009354;28;20693;-55
2022/05/17 02:17:09;;;;;;;14.80;7.45;;;;;;;11.29;99.32;99792.81;5004897;28;20048;-56
2022/05/17 02:19:34;;;;;;;16.20;7.28;;;;;;;11.30;99.78;99792.56;5005122;28;20056;-54
2022/05/17 02:22:00;;;;;;;14.75;7.80;;;;;;;11.46;99.77;99793.75;5007737;28;20570;-55
2022/05/17 02:24:27;;;;;;;15.95;7.75;;;;;;;11.30;98.61;99791.75;5008068;28;20033;-56
2022/05/17 02:26:54;;;;;;;16.00;8.23;;;;;;;11.12;98.27;99790.00;4991431;28;20159;-56
2022/05/17 02:29:19;;;;;;;14.57;8.23;;;;;;;11.20;100.00;99786.97;5007335;28;20034;-56
2022/05/17 02:31:45;;;;;;;11.60;7.68;;;;;;;11.13;99.96;99803.19;5008838;28;20278;-56
2022/05/17 02:34:11;;;;;;;15.93;7.95;;;;;;;11.11;100.00;99807.16;5007113;28;20121;-56
2022/05/17 02:36:36;;;;;;;15.23;7.88;;;;;;;11.04;99.54;99811.81;4990021;28;20038;-56
2022/05/17 02:39:02;;;;;;;11.73;6.95;;;;;;;10.98;100.00;99810.84;4990620;28;20074;-56
2022/05/17 02:41:27;;;;;;;13.88;7.75;;;;;;;10.91;100.00;99810.97;5005166;28;20037;-56
2022/05/17 02:43:53;;;;;;;16.10;8.32;;;;;;;10.95;100.00;99811.31;4978256;28;20034;-56
2022/05/17 02:46:19;;;;;;;17.58;7.72;;;;;;;10.92;100.00;99822.50;5007326;28;20439;-54
2022/05/17 02:48:47;;;;;;;12.00;7.43;;;;;;;10.90;100.00;99820.03;5006580;28;20034;-56
2022/05/17 02:51:15;;;;;;;12.77;7.80;;;;;;;10.92;100.00;99817.13;4985229;28;20026;-56
2022/05/17 02:53:40;;;;;;;14.10;7.82;;;;;;;10.86;100.00;99813.53;4988182;28;20030;-55
2022/05/17 02:56:06;;;;;;;9.93;7.40;;;;;;;10.91;100.00;99820.88;5004598;28;20088;-56
2022/05/17 02:58:32;;;;;;;12.07;8.40;;;;;;;10.96;100.00;99824.50;5008820;28;20432;-55
2022/05/17 03:00:57;;;;;;;12.07;8.07;;;;;;;11.01;100.00;99826.50;5007935;28;20113;-56
2022/05/17 03:03:23;;;;;;;16.63;8.18;;;;;;;10.99;100.00;99832.06;5007506;28;20121;-55
2022/05/17 03:05:49;;;;;;;12.88;7.93;;;;;;;10.91;100.00;99829.72;5005942;28;20061;-56
2022/05/17 03:08:14;;;;;;;13.65;8.60;;;;;;;10.83;100.00;99830.03;5007164;28;20050;-55
2022/05/17 03:10:40;;;;;;;12.88;8.27;;;;;;;10.93;100.00;99830.31;5007459;28;20466;-53
2022/05/17 03:13:05;;;;;;;12.80;7.97;;;;;;;10.89;100.00;99834.50;5007772;28;20053;-56
2022/05/17 03:15:31;;;;;;;16.67;8.50;;;;;;;10.76;100.00;99834.72;4987438;28;20022;-55
2022/05/17 03:17:57;;;;;;;11.32;7.57;;;;;;;10.73;100.00;99837.81;5007185;28;20076;-55
2022/05/17 03:20:22;;;;;;;12.48;7.45;;;;;;;10.38;99.59;99838.50;4987659;28;20030;-56
2022/05/17 03:22:48;;;;;;;9.52;7.13;;;;;;;10.21;100.00;99842.81;4990341;28;20520;-57
2022/05/17 03:25:13;;;;;;;12.43;8.40;;;;;;;10.27;100.00;99847.28;5006779;28;20028;-55
2022/05/17 03:27:39;;;;;;;13.35;7.82;;;;;;;10.28;100.00;99843.59;5006879;28;20017;-56
2022/05/17 03:30:05;;;;;;;9.93;7.53;;;;;;;10.42;100.00;99845.06;5005922;28;20057;-56
2022/05/17 03:32:31;;;;;;;16.23;8.40;;;;;;;10.40;100.00;99844.47;5006694;28;20444;-56
2022/05/17 03:34:56;;;;;;;14.82;7.80;;;;;;;10.46;100.00;99848.94;5007246;28;20801;-55
2022/05/17 03:37:22;;;;;;;13.48;8.13;;;;;;;10.61;100.00;99850.38;5006616;28;20606;-55
2022/05/17 03:39:48;;;;;;;11.57;8.38;;;;;;;10.52;100.00;99850.69;4990218;28;20057;-56
2022/05/17 03:42:13;;;;;;;19.33;8.23;;;;;;;10.38;100.00;99849.22;5006552;28;20047;-56
2022/05/17 03:44:39;;;;;;;17.20;8.23;;;;;;;10.53;100.00;99835.44;5004503;28;20044;-55
2022/05/17 03:47:05;;;;;;;9.45;7.32;;;;;;;10.82;100.00;99852.56;5006205;28;20045;-57
2022/05/17 03:49:31;;;;;;;17.65;8.07;;;;;;;10.80;99.50;99842.03;4985475;28;20038;-57
2022/05/17 03:51:56;;;;;;;11.45;7.30;;;;;;;10.99;98.94;99856.22;5006559;28;20382;-57
2022/05/17 03:54:23;;;;;;;19.38;8.43;;;;;;;10.81;97.20;99858.97;5006359;28;20113;-56
2022/05/17 03:56:49;;;;;;;13.00;8.20;;;;;;;11.31;95.34;99855.13;5006398;28;20080;-54
2022/05/17 03:59:14;;;;;;;11.90;7.68;;;;;;;11.35;93.42;99854.41;5003541;28;20022;-57
2022/05/17 04:01:40;;;;;;;11.57;7.10;;;;;;;11.22;94.34;99862.69;5006361;28;20091;-56
2022/05/17 04:04:06;;;;;;;13.05;8.00;;;;;;;11.07;94.13;99862.31;5004041;28;20022;-55
2022/05/17 04:06:31;;;;;;;15.07;8.63;;;;;;;11.54;93.49;99862.38;4988717;28;20079;-57
2022/05/17 04:08:57;;;;;;;13.80;6.97;;;;;;;11.37;92.64;99863.03;5007070;28;20443;-56
2022/05/17 04:11:23;;;;;;;9.05;7.13;;;;;;;12.62;88.53;99866.25;5004789;28;20061;-56
2022/05/17 04:13:48;;;;;;;11.13;7.07;;;;;;;14.37;80.19;99867.88;5004432;28;20030;-55
2022/05/17 04:16:14;;;;;;;9.93;6.75;;;;;;;16.00;72.54;99870.44;5004298;28;20048;-55
2022/05/17 04:18:39;;;;;;;8.75;6.18;;;;;;;15.26;74.60;99863.94;5005677;28;20120;-56
2022/05/17 04:21:05;;;;;;;8.68;5.60;;;;;;;15.14;73.96;99871.41;5006205;28;20076;-56
2022/05/17 04:23:31;;;;;;;8.93;6.25;;;;;;;16.04;72.20;99876.13;5006372;28;20080;-56
2022/05/17 04:25:57;;;;;;;8.35;5.60;;;;;;;16.60;68.96;99865.53;5005438;28;20105;-56
2022/05/17 04:28:22;;;;;;;9.00;5.20;;;;;;;17.63;65.07;99864.53;5004979;28;20363;-54
2022/05/17 04:30:48;;;;;;;9.13;5.63;;;;;;;17.66;65.85;99863.16;5006032;28;20073;-56
2022/05/17 04:33:14;;;;;;;6.45;4.85;;;;;;;18.90;62.54;99872.47;5005181;28;20100;-57
2022/05/17 04:35:40;;;;;;;8.77;4.97;;;;;;;19.28;60.53;99870.84;4972695;28;20026;-56
2022/05/17 04:38:07;;;;;;;13.95;4.80;;;;;;;20.28;57.69;99873.13;4988175;28;20065;-56
2022/05/17 04:40:33;;;;;;;8.65;4.78;;;;;;;20.74;56.22;99867.88;4979566;28;20068;-56
2022/05/17 04:42:58;;;;;;;9.98;4.60;;;;;;;20.89;54.04;99867.69;5006314;28;20073;-57
2022/05/17 04:45:24;;;;;;;9.15;4.47;;;;;;;21.21;53.04;99868.00;5004966;28;20097;-56
2022/05/17 04:47:50;;;;;;;9.13;4.10;;;;;;;20.40;54.87;99876.22;4975687;28;20017;-56
2022/05/17 04:50:16;;;;;;;8.18;4.30;;;;;;;20.50;55.93;99875.28;4986424;28;20241;-57
2022/05/17 04:52:41;;;;;;;8.18;3.88;;;;;;;22.33;51.32;99878.81;5001407;28;20033;-57
2022/05/17 04:55:07;;;;;;;7.53;4.05;;;;;;;21.63;53.50;99880.66;5004675;28;20030;-57
2022/05/17 04:57:35;;;;;;;8.57;4.00;;;;;;;21.38;54.12;99889.28;5004725;28;20029;-57
2022/05/17 05:00:04;;;;;;;8.23;4.03;;;;;;;22.83;50.18;99893.28;5000393;28;20425;-56
2022/05/17 05:02:30;;;;;;;8.45;4.00;;;;;;;21.78;51.78;99892.44;5004735;28;20511;-57
2022/05/17 05:04:55;;;;;;;8.60;4.45;;;;;;;20.56;55.08;99893.19;5005616;28;20042;-56
2022/05/17 05:07:21;;;;;;;8.90;3.85;;;;;;;19.84;57.89;99885.84;5004797;28;20140;-57
2022/05/17 05:09:46;;;;;;;7.28;4.35;;;;;;;20.59;56.19;99893.44;5003842;28;20068;-57
2022/05/17 05:12:12;;;;;;;7.00;3.85;;;;;;;20.86;56.07;99884.59;5004304;28;20403;-55
2022/05/17 05:14:38;;;;;;;7.55;3.90;;;;;;;20.73;56.40;99896.22;4991382;28;20034;-56
2022/05/17 05:17:04;;;;;;;6.45;3.90;;;;;;;20.34;58.50;99904.59;5000914;28;20452;-55
2022/05/17 05:19:29;;;;;;;8.00;3.80;;;;;;;19.84;59.47;99902.16;5003965;28;20290;-56
2022/05/17 05:21:55;;;;;;;6.13;4.20;;;;;;;20.17;60.01;99905.09;5004539;28;20120;-58
2022/05/17 05:24:20;;;;;;;7.30;3.88;;;;;;;20.44;59.46;99901.75;5002438;28;20029;-56
2022/05/17 05:26:46;;;;;;;6.72;4.07;;;;;;;20.20;59.29;99904.50;4962595;28;20498;-57
2022/05/17 05:29:11;;;;;;;7.68;4.03;;;;;;;20.11;61.64;99903.50;5003330;28;20440;-57
2022/05/17 05:31:37;;;;;;;8.93;4.28;;;;;;;22.18;55.80;99912.66;5002986;28;20117;-56
2022/05/17 05:34:02;;;;;;;8.95;4.00;;;;;;;22.55;53.72;99906.22;5002577;28;20550;-57
2022/05/17 05:36:28;;;;;;;7.20;4.10;;;;;;;21.33;56.43;99907.31;4986006;28;20044;-57
2022/05/17 05:38:55;;;;;;;8.48;4.20;;;;;;;21.14;58.30;99909.25;4984479;28;20062;-57
2022/05/17 05:41:20;;;;;;;7.18;3.85;;;;;;;19.68;64.09;99908.84;5004728;28;20229;-57
2022/05/17 05:43:46;;;;;;;6.85;4.20;;;;;;;19.83;63.51;99909.50;5004788;28;20519;-56
2022/05/17 05:46:12;;;;;;;6.00;3.55;;;;;;;20.31;62.47;99906.00;4983462;28;20045;-56
2022/05/17 05:48:37;;;;;;;5.68;3.70;;;;;;;20.86;61.08;99909.13;4986039;28;20230;-57
2022/05/17 05:51:03;;;;;;;11.55;4.13;;;;;;;20.59;61.90;99909.78;4984939;28;20023;-58
2022/05/17 05:53:31;;;;;;;7.00;3.95;;;;;;;19.20;66.86;99908.69;4984878;28;20016;-58
2022/05/17 05:56:02;;;;;;;7.13;3.85;;;;;;;20.37;63.00;99907.56;4985234;28;20407;-58
2022/05/17 05:58:29;;;;;;;5.82;3.78;;;;;;;21.23;61.12;99909.41;4977966;28;20061;-61
2022/05/17 06:00:55;;;;;;;7.30;3.65;;;;;;;21.89;58.10;99921.97;4984310;28;20037;-57
2022/05/17 06:03:23;;;;;;;8.10;3.70;;;;;;;21.95;57.99;99915.28;4981053;28;20026;-57
2022/05/17 06:05:49;;;;;;;14.15;3.45;;;;;;;23.18;54.64;99925.63;4980701;28;20507;-57
2022/05/17 06:08:15;;;;;;;11.77;3.60;;;;;;;22.78;55.39;99925.41;4976178;28;20030;-57
2022/05/17 06:10:43;;;;;;;6.93;3.60;;;;;;;22.41;56.20;99921.78;4977468;28;20061;-57
2022/05/17 06:13:09;;;;;;;6.25;3.40;;;;;;;22.20;56.32;99923.34;4977306;28;20065;-57
2022/05/17 06:15:35;;;;;;;8.00;3.05;;;;;;;23.16;54.86;99925.13;4983265;28;20019;-57
2022/05/17 06:18:01;;;;;;;8.15;3.88;;;;;;;22.81;55.07;99924.78;4978050;28;20100;-56
2022/05/17 06:20:26;;;;;;;7.45;3.45;;;;;;;22.52;55.51;99920.47;4982748;28;20027;-55
2022/05/17 06:22:52;;;;;;;4.97;3.80;;;;;;;21.26;58.55;99916.97;5000396;28;20101;-56
2022/05/17 06:25:18;;;;;;;6.55;3.70;;;;;;;22.04;57.63;99917.31;4987658;28;20030;-56
2022/05/17 06:27:43;;;;;;;6.95;3.47;;;;;;;20.99;59.83;99920.38;4989519;28;20042;-56
2022/05/17 06:30:11;;;;;;;7.25;3.55;;;;;;;20.69;60.92;99916.97;4987437;28;20536;-56
2022/05/17 06:32:38;;;;;;;9.25;4.35;;;;;;;21.23;59.42;99915.66;4987924;28;20034;-56
2022/05/17 06:35:04;;;;;;;6.63;3.60;;;;;;;22.44;56.14;99926.66;4987425;28;20058;-56
2022/05/17 06:37:30;;;;;;;7.88;3.95;;;;;;;23.06;54.30;99926.16;4986359;28;20036;-58
2022/05/17 06:39:55;;;;;;;6.47;3.55;;;;;;;23.19;53.60;99930.00;5002110;28;20026;-57
2022/05/17 06:42:21;;;;;;;7.68;3.78;;;;;;;23.55;51.61;99927.19;4988866;28;20034;-56
2022/05/17 06:44:46;;;;;;;6.53;3.65;;;;;;;23.77;50.61;99937.31;4987981;28;20045;-57
2022/05/17 06:47:12;;;;;;;6.70;3.60;;;;;;;21.39;57.26;99937.25;5000707;28;20084;-57
2022/05/17 06:49:39;;;;;;;8.88;3.88;;;;;;;20.59;60.27;99938.91;5007472;28;20112;-56
2022/05/17 06:52:07;;;;;;;7.15;3.38;;;;;;;22.35;55.84;99939.41;5006376;28;20040;-57
2022/05/17 06:54:40;;;;;;;6.20;3.65;;;;;;;23.02;53.89;99936.13;5004203;28;20114;-57
2022/05/17 06:57:07;;;;;;;7.10;3.45;;;;;;;22.78;55.37;99928.13;4989927;28;20030;-57
2022/05/17 06:59:33;;;;;;;6.40;3.67;;;;;;;22.65;54.19;99926.25;5002054;28;20476;-57
2022/05/17 07:02:00;;;;;;;8.77;3.40;;;;;;;24.21;49.95;99919.19;5007183;28;20393;-57
2022/05/17 07:04:29;;;;;;;7.13;3.60;;;;;;;25.92;46.84;99930.91;5002581;28;20021;-57
2022/05/17 07:06:58;;;;;;;6.32;3.33;;;;;;;24.40;49.77;99934.53;5006392;28;20532;-57
2022/05/17 07:09:24;;;;;;;9.70;3.35;;;;;;;24.75;48.80;99930.78;5007070;28;20666;-57
2022/05/17 07:14:40;;;;;;;9.13;3.35;;;;;;;24.66;48.84;99931.88;5001659;28;20580;-57
2022/05/17 07:17:15;;;;;;;7.32;3.10;;;;;;;25.98;46.49;99939.78;5005831;28;20037;-57
2022/05/17 07:19:41;;;;;;;6.28;3.60;;;;;;;25.32;49.21;99942.78;4985948;28;20123;-57
2022/05/17 07:22:07;;;;;;;6.88;3.53;;;;;;;26.33;46.09;99947.88;4996672;28;20112;-57
2022/05/17 07:24:33;;;;;;;10.45;3.42;;;;;;;25.36;49.05;99939.06;5002945;28;20033;-57
2022/05/17 07:26:59;;;;;;;8.20;3.40;;;;;;;26.05;47.53;99942.81;5006457;28;20345;-57
2022/05/17 07:29:25;;;;;;;10.55;3.22;;;;;;;25.82;47.29;99940.28;4995175;28;20105;-57
2022/05/17 07:31:50;;;;;;;7.88;3.65;;;;;;;26.04;47.98;99941.22;5005304;28;20160;-57
2022/05/17 07:34:16;;;;;;;7.35;3.70;;;;;;;26.19;46.77;99942.63;5004537;28;20188;-57
2022/05/17 07:36:42;;;;;;;5.60;3.40;;;;;;;25.99;47.13;99939.44;5001596;28;20026;-57
2022/05/17 07:39:08;;;;;;;7.10;3.60;;;;;;;26.73;45.84;99939.28;5002592;28;20669;-57
2022/05/17 07:41:34;;;;;;;7.22;3.45;;;;;;;25.72;46.38;99937.06;5004420;28;20042;-57
2022/05/17 07:44:01;;;;;;;5.90;3.30;;;;;;;26.84;44.96;99941.31;5005070;28;20504;-57
2022/05/17 07:46:26;;;;;;;6.22;3.38;;;;;;;26.44;45.49;99944.44;4997281;28;20468;-57
2022/05/17 07:48:52;;;;;;;8.63;3.38;;;;;;;26.38;43.18;99953.97;4998346;28;20077;-56
2022/05/17 07:51:18;;;;;;;6.70;3.25;;;;;;;26.66;43.43;99950.81;5004870;28;20429;-57
2022/05/17 07:53:43;;;;;;;10.63;3.50;;;;;;;23.89;49.54;99948.50;4998965;28;20053;-56
2022/05/17 07:56:09;;;;;;;12.48;3.67;;;;;;;24.90;46.83;99943.22;5005490;28;20108;-56
2022/05/17 07:58:34;;;;;;;8.63;3.30;;;;;;;26.08;45.17;99944.09;4994209;28;20030;-56
2022/05/17 08:01:04;;;;;;;9.50;3.60;;;;;;;25.50;46.05;99943.56;4999203;28;20037;-56
2022/05/17 08:03:29;;;;;;;;;;;;;;;25.67;46.33;99940.00;5005267;28;20400;-56
2022/05/17 08:05:55;;;;;;;9.23;3.58;;;;;;;24.17;49.81;99937.34;5004222;28;20450;-56
2022/05/17 08:08:20;;;;;;;8.80;3.53;;;;;;;24.10;52.53;99937.00;5004922;28;20049;-55
2022/05/17 08:10:46;;;;;;;12.18;3.80;;;;;;;23.92;51.04;99944.34;4984537;28;20025;-56
2022/05/17 08:13:13;;;;;;;11.90;3.90;;;;;;;23.37;52.14;99939.94;4979718;28;20050;-56
2022/05/17 08:15:39;;;;;;;8.23;2.90;;;;;;;25.38;48.78;99941.47;5005800;28;20054;-56
2022/05/17 08:18:05;;;;;;;9.27;3.17;;;;;;;26.16;46.25;99943.25;5000653;28;20120;-57
2022/05/17 08:20:31;;;;;;;10.52;3.80;;;;;;;24.70;47.92;99944.63;5004076;28;20034;-57
2022/05/17 08:22:57;;;;;;;11.55;3.90;;;;;;;22.92;53.34;99948.06;5003073;28;20036;-56
2022/05/17 08:28:07;;;;;;;12.73;3.25;;;;;;;26.00;44.81;99946.53;5001676;28;20068;-56
2022/05/17 08:30:35;;;;;;;9.63;3.60;;;;;;;26.72;43.66;99954.16;5004617;28;20037;-56
2022/05/17 08:33:14;;;;;;;10.50;3.90;;;;;;;27.00;41.59;99957.22;4988119;28;20034;-56
2022/05/17 08:35:56;;;;;;;11.00;3.97;;;;;;;24.03;48.40;99955.81;5000778;28;20034;-56
2022/05/17 08:38:36;;;;;;;9.30;3.50;;;;;;;25.88;45.81;99946.41;5000896;28;20316;-56
2022/05/17 08:41:07;;;;;;;11.05;4.18;;;;;;;22.69;51.20;99960.00;4988189;28;20037;-57
2022/05/17 08:43:54;;;;;;;10.02;3.85;;;;;;;24.48;48.01;99948.28;4989808;28;20080;-57
2022/05/17 08:46:54;;;;;;;12.40;4.15;;;;;;;24.78;47.59;99951.25;4980719;28;20038;-56
2022/05/17 08:49:25;;;;;;;11.68;4.50;;;;;;;24.22;49.20;99948.19;5001173;28;20037;-57
2022/05/17 08:52:07;;;;;;;13.13;4.05;;;;;;;23.26;51.65;99946.75;4987735;28;20037;-57
2022/05/17 08:54:55;;;;;;;11.45;4.20;;;;;;;25.00;48.41;99947.59;5002418;28;20022;-57
2022/05/17 08:57:20;;;;;;;11.07;3.95;;;;;;;25.71;46.73;99943.69;4988569;28;20029;-56
2022/05/17 08:59:47;;;;;;;10.05;4.10;;;;;;;26.00;45.46;99941.06;5003114;28;20036;-56
2022/05/17 09:02:44;;;;;;;14.00;4.40;;;;;;;25.75;46.72;99939.97;5003878;28;20480;-56
2022/05/17 09:05:22;;;;;;;14.80;4.53;;;;;;;26.00;46.89;99945.75;4987028;28;20283;-56
2022/05/17 09:07:54;;;;;;;11.15;4.20;;;;;;;24.41;49.26;99945.19;4999853;28;20029;-56
2022/05/17 09:10:39;;;;;;;11.68;4.50;;;;;;;23.51;51.48;99947.25;5005358;28;20048;-56
2022/05/17 09:13:26;;;;;;;11.75;4.07;;;;;;;25.13;47.30;99935.63;5000490;28;20033;-56
2022/05/17 09:15:56;;;;;;;12.73;3.50;;;;;;;23.97;50.26;99937.91;4986891;28;20407;-56
2022/05/17 09:18:21;;;;;;;12.20;3.80;;;;;;;24.60;49.20;99927.69;5003948;28;20036;-56
2022/05/17 09:20:47;;;;;;;8.23;3.72;;;;;;;23.94;49.41;99936.63;4986696;28;20034;-56
2022/05/17 09:23:13;;;;;;;13.82;3.42;;;;;;;22.85;52.40;99930.47;5003242;28;20033;-58
2022/05/17 09:26:04;;;;;;;10.55;4.05;;;;;;;22.56;52.41;99929.66;4984777;28;20373;-56
2022/05/17 09:28:51;;;;;;;8.30;3.13;;;;;;;23.51;51.08;99925.38;5003297;28;20026;-56
2022/05/17 09:31:23;;;;;;;8.07;3.00;;;;;;;24.99;47.77;99924.03;5000714;28;20033;-55
2022/05/17 09:33:49;;;;;;;10.00;2.83;;;;;;;26.08;45.17;99924.88;5004891;28;20041;-55
2022/05/17 09:36:24;;;;;;;5.55;2.60;;;;;;;24.96;44.31;99930.16;5004542;28;20037;-56
2022/05/17 09:38:51;;;;;;;7.07;2.70;;;;;;;23.54;47.83;99924.75;5004456;28;20081;-55
2022/05/17 09:41:19;;;;;;;8.50;2.70;;;;;;;22.58;48.76;99921.97;4987673;28;20125;-56
2022/05/17 09:43:56;;;;;;;8.10;2.85;;;;;;;24.10;46.82;99931.53;5003159;28;20022;-55
2022/05/17 09:46:32;;;;;;;6.97;2.35;;;;;;;25.76;43.82;99919.63;5003755;28;20046;-56
2022/05/17 09:54:44;;;;;;;4.57;2.03;;;;;;;26.57;41.38;99923.38;5005010;28;20046;-55
2022/05/17 09:57:22;;;;;;;3.53;1.70;;;;;;;26.10;37.84;99922.59;4988744;28;20072;-56
2022/05/17 10:00:12;;;;;;;5.95;1.80;;;;;;;26.49;37.91;99924.19;5006877;28;20105;-56
2022/05/17 10:03:00;;;;;;;5.90;2.10;;;;;;;25.03;41.00;99913.22;5006090;28;20084;-56
2022/05/17 10:05:38;;;;;;;4.88;1.83;;;;;;;24.46;42.55;99920.41;5006934;28;20065;-57
2022/05/17 10:08:25;;;;;;;5.35;2.40;;;;;;;24.34;43.76;99920.19;5007655;28;20528;-56
2022/05/17 10:11:18;;;;;;;7.57;2.28;;;;;;;26.68;41.14;99915.53;4991239;28;20471;-55
2022/05/17 10:13:53;;;;;;;5.35;2.30;;;;;;;26.18;39.02;99908.03;5004004;28;20290;-57
2022/05/17 10:16:26;;;;;;;6.55;2.30;;;;;;;27.64;37.02;99921.06;5006782;28;20069;-55
2022/05/17 10:19:23;;;;;;;4.93;1.85;;;;;;;27.41;37.63;99908.81;5001854;28;20040;-56
2022/05/17 10:21:56;;;;;;;4.88;2.00;;;;;;;27.52;37.47;99912.75;4954479;28;20045;-57
2022/05/17 10:24:25;;;;;;;5.65;2.33;;;;;;;25.80;40.73;99904.09;5006663;28;20034;-56
2022/05/17 10:27:34;;;;;;;6.73;2.13;;;;;;;26.83;39.41;99906.72;5007587;28;20037;-56
2022/05/17 10:30:32;;;;;;;4.15;2.00;;;;;;;27.28;39.71;99900.53;4931121;29;20035;-57
2022/05/17 10:33:05;;;;;;;5.45;2.10;;;;;;;25.78;41.58;99902.81;4925967;29;20438;-55
2022/05/17 10:35:45;;;;;;;6.13;2.30;;;;;;;26.60;40.61;99902.66;4955951;28;20045;-56
2022/05/17 10:38:25;;;;;;;7.10;2.10;;;;;;;27.15;38.97;99901.56;4986918;28;20022;-56
2022/05/17 10:40:52;;;;;;;5.03;2.03;;;;;;;26.34;40.70;99895.34;4973023;28;20034;-56
2022/05/17 10:43:26;;;;;;;6.15;2.28;;;;;;;26.41;40.52;99895.63;4987378;28;20038;-56
2022/05/17 10:46:01;;;;;;;5.50;2.13;;;;;;;26.49;40.38;99891.22;5001190;28;20069;-56
2022/05/17 10:48:42;;;;;;;7.53;2.30;;;;;;;27.35;38.81;99894.47;4980825;28;20036;-57
2022/05/17 10:51:30;;;;;;;5.40;1.90;;;;;;;27.54;38.00;99896.72;5007313;28;20037;-57
2022/05/17 10:54:17;;;;;;;4.47;2.00;;;;;;;27.14;37.80;99891.72;5007995;28;20602;-60
2022/05/17 10:56:45;;;;;;;3.92;1.80;;;;;;;26.14;39.67;99887.84;4991316;28;20958;-56
2022/05/17 10:59:20;;;;;;;5.13;1.88;;;;;;;27.41;39.23;99893.13;5006538;28;20120;-56
2022/05/17 11:02:05;;;;;;;8.82;2.33;;;;;;;27.24;38.74;99876.78;5003562;28;20041;-56
2022/05/17 11:04:57;;;;;;;7.75;2.38;;;;;;;25.87;41.28;99876.19;4973059;28;20022;-57
2022/05/17 11:07:53;;;;;;;4.38;2.00;;;;;;;26.60;40.56;99877.91;4989260;28;20021;-56
2022/05/17 11:10:31;;;;;;;6.78;2.28;;;;;;;26.54;39.81;99866.31;5003189;28;20247;-55
2022/05/17 11:13:05;;;;;;;8.20;2.00;;;;;;;25.86;41.16;99863.59;4989219;28;20112;-56
2022/05/17 11:15:35;;;;;;;3.83;1.75;;;;;;;26.32;40.04;99863.84;4989611;28;20038;-56
2022/05/17 11:18:06;;;;;;;4.15;1.70;;;;;;;27.14;38.25;99864.22;4989625;28;20038;-55
2022/05/17 11:20:43;;;;;;;2.67;1.80;;;;;;;27.09;37.48;99862.47;4986962;28;20022;-55
2022/05/17 11:23:33;;;;;;;5.72;1.90;;;;;;;26.65;39.09;99861.22;4974334;28;20050;-58
2022/05/17 11:26:36;;;;;;;4.53;1.92;;;;;;;24.74;42.32;99854.38;4996202;28;20037;-55
2022/05/17 11:29:04;;;;;;;7.35;1.83;;;;;;;25.28;41.01;99848.53;4981000;28;20046;-55
2022/05/17 11:32:21;;;;;;;4.30;1.73;;;;;;;25.98;40.24;99855.44;5002829;28;20029;-56
2022/05/17 11:34:47;;;;;;;5.47;2.03;;;;;;;24.82;42.31;99848.06;4973193;28;20172;-55
2022/05/17 11:37:36;;;;;;;4.88;1.90;;;;;;;24.82;42.51;99842.59;4984828;28;20091;-55
2022/05/17 11:40:11;;;;;;;4.50;1.95;;;;;;;24.95;42.06;99844.34;5000090;28;20030;-55
2022/05/17 11:43:40;;;;;;;4.03;1.90;;;;;;;25.23;41.07;99835.78;5004150;28;20026;-55
2022/05/17 11:45:44;;;;;;;4.20;1.90;;;;;;;26.16;40.78;99838.88;4991535;28;20107;-56
2022/05/17 11:48:14;;;;;;;2.85;1.65;;;;;;;26.98;38.63;99841.22;4973172;28;20054;-55
2022/05/17 11:50:52;;;;;;;4.75;1.95;;;;;;;27.21;38.34;99833.41;4960159;28;20046;-55
2022/05/17 11:53:23;;;;;;;2.83;1.60;;;;;;;26.30;39.19;99828.44;4961654;28;20625;-56